createdAt,value
2023-01-20T00:01:03.755Z,31.77
2023-01-20T00:03:30.406Z,27.70
2023-01-20T00:05:56.907Z,31.70
2023-01-20T00:08:23.240Z,29.48
2023-01-20T00:10:49.542Z,32.10
2023-01-20T00:13:15.746Z,26.38
2023-01-20T00:15:42.000Z,29.55
2023-01-20T00:18:08.256Z,32.85
2023-01-20T00:20:34.525Z,31.00
2023-01-20T00:23:00.723Z,37.67
2023-01-20T00:25:26.974Z,32.22
2023-01-20T00:27:53.241Z,35.20
2023-01-20T00:30:19.713Z,28.35
2023-01-20T00:32:46.021Z,38.30
2023-01-20T00:35:12.838Z,28.63
2023-01-20T00:37:39.543Z,25.38
2023-01-20T00:40:06.287Z,31.08
2023-01-20T00:42:32.762Z,34.10
2023-01-20T00:44:58.983Z,31.77
2023-01-20T00:47:25.203Z,35.20
2023-01-20T00:49:51.394Z,40.30
2023-01-20T00:52:18.692Z,33.72
2023-01-20T00:54:45.228Z,41.22
2023-01-20T00:57:11.956Z,37.78
2023-01-20T00:59:38.244Z,37.88
2023-01-20T01:02:04.701Z,25.48
2023-01-20T01:04:31.127Z,35.60
2023-01-20T01:06:57.384Z,34.15
2023-01-20T01:09:23.610Z,33.67
2023-01-20T01:11:49.868Z,36.83
2023-01-20T01:14:16.262Z,38.75
2023-01-20T01:16:42.510Z,38.10
2023-01-20T01:19:08.767Z,36.90
2023-01-20T01:21:34.990Z,31.33
2023-01-20T01:24:01.203Z,34.50
2023-01-20T01:26:27.450Z,39.08
2023-01-20T01:28:53.785Z,32.03
2023-01-20T01:31:21.884Z,33.33
2023-01-20T01:33:48.818Z,35.40
2023-01-20T01:36:16.638Z,27.95
2023-01-20T01:38:43.431Z,22.70
2023-01-20T01:41:11.228Z,25.08
2023-01-20T01:43:37.794Z,21.08
2023-01-20T01:46:04.340Z,21.90
2023-01-20T01:48:36.750Z,22.83
2023-01-20T01:51:05.836Z,24.48
2023-01-20T01:53:34.901Z,27.90
2023-01-20T01:56:02.246Z,26.80
2023-01-20T01:58:31.582Z,25.77
2023-01-20T02:00:57.908Z,26.88
2023-01-20T02:03:24.498Z,22.95
2023-01-20T02:05:51.880Z,28.30
2023-01-20T02:08:19.067Z,18.58
2023-01-20T02:10:45.382Z,28.23
2023-01-20T02:13:11.750Z,21.25
2023-01-20T02:15:41.635Z,29.98
2023-01-20T02:18:26.448Z,24.83
2023-01-20T02:21:11.454Z,25.10
2023-01-20T02:23:37.644Z,20.60
2023-01-20T02:26:06.597Z,24.60
2023-01-20T02:28:51.665Z,25.55
2023-01-20T02:31:29.078Z,20.65
2023-01-20T02:34:10.791Z,24.45
2023-01-20T02:36:36.988Z,23.45
2023-01-20T02:39:05.775Z,24.27
2023-01-20T02:41:32.003Z,27.83
2023-01-20T02:44:04.237Z,23.52
2023-01-20T02:46:39.686Z,26.15
2023-01-20T02:49:17.901Z,28.20
2023-01-20T02:51:50.533Z,25.60
2023-01-20T02:54:18.413Z,25.85
2023-01-20T02:56:45.262Z,15.32
2023-01-20T02:59:13.055Z,19.90
2023-01-20T03:01:42.250Z,24.13
2023-01-20T03:04:10.544Z,14.02
2023-01-20T03:06:38.575Z,20.27
2023-01-20T03:09:07.360Z,22.88
2023-01-20T03:11:36.190Z,17.02
2023-01-20T03:14:12.827Z,19.23
2023-01-20T03:16:39.592Z,20.52
2023-01-20T03:19:06.102Z,23.23
2023-01-20T03:21:33.004Z,18.30
2023-01-20T03:24:03.477Z,20.45
2023-01-20T03:26:30.922Z,21.83
2023-01-20T03:28:57.857Z,24.30
2023-01-20T03:31:26.107Z,18.73
2023-01-20T03:33:54.617Z,21.17
2023-01-20T03:36:22.159Z,27.33
2023-01-20T03:38:48.761Z,21.80
2023-01-20T03:41:14.970Z,28.75
2023-01-20T03:43:41.149Z,32.25
2023-01-20T03:46:13.898Z,29.48
2023-01-20T03:48:49.545Z,18.17
2023-01-20T03:51:22.873Z,35.63
2023-01-20T03:54:09.573Z,34.80
2023-01-20T03:56:35.819Z,29.73
2023-01-20T03:59:02.885Z,35.38
2023-01-20T04:01:34.101Z,36.92
2023-01-20T04:04:00.881Z,33.17
2023-01-20T04:06:30.190Z,42.65
2023-01-20T04:08:59.635Z,25.02
2023-01-20T04:11:27.067Z,37.63
2023-01-20T04:13:53.584Z,39.88
2023-01-20T04:16:20.389Z,31.58
2023-01-20T04:18:48.696Z,36.13
2023-01-20T04:21:19.511Z,32.80
2023-01-20T04:24:04.590Z,25.63
2023-01-20T04:26:31.137Z,24.75
2023-01-20T04:28:57.401Z,40.65
2023-01-20T04:31:30.639Z,30.50
2023-01-20T04:33:57.605Z,31.48
2023-01-20T04:36:23.802Z,31.63
2023-01-20T04:38:50.061Z,34.10
2023-01-20T04:41:16.284Z,23.63
2023-01-20T04:43:46.064Z,30.48
2023-01-20T04:46:13.108Z,30.80
2023-01-20T04:48:39.354Z,27.67
2023-01-20T04:51:06.462Z,24.25
2023-01-20T04:53:32.679Z,38.88
2023-01-20T04:55:58.932Z,34.22
2023-01-20T04:58:25.417Z,34.92
2023-01-20T05:00:51.711Z,40.22
2023-01-20T05:03:17.996Z,35.63
2023-01-20T05:05:44.433Z,31.52
2023-01-20T05:08:10.711Z,37.90
2023-01-20T05:10:36.988Z,39.35
2023-01-20T05:13:03.232Z,30.35
2023-01-20T05:15:29.469Z,32.35
2023-01-20T05:17:55.653Z,32.53
2023-01-20T05:20:21.953Z,31.33
2023-01-20T05:22:48.187Z,31.90
2023-01-20T05:25:14.772Z,30.40
2023-01-20T05:27:41.510Z,38.50
2023-01-20T05:30:08.369Z,33.88
2023-01-20T05:32:34.649Z,34.55
2023-01-20T05:35:00.931Z,29.67
2023-01-20T05:37:27.152Z,33.13
2023-01-20T05:39:53.407Z,35.45
2023-01-20T05:42:19.693Z,35.40
2023-01-20T05:44:45.899Z,31.67
2023-01-20T05:47:12.138Z,23.98
2023-01-20T05:49:38.357Z,20.38
2023-01-20T05:52:04.718Z,31.38
2023-01-20T05:54:31.083Z,36.75
2023-01-20T05:56:57.348Z,27.58
2023-01-20T05:59:23.591Z,26.85
2023-01-20T06:01:49.848Z,28.02
2023-01-20T06:04:16.052Z,32.05
2023-01-20T06:06:42.381Z,30.95
2023-01-20T06:09:10.834Z,29.88
2023-01-20T06:11:37.091Z,30.17
2023-01-20T06:14:03.361Z,30.98
2023-01-20T06:16:29.834Z,25.17
2023-01-20T06:18:57.519Z,35.42
2023-01-20T06:21:24.812Z,35.72
2023-01-20T06:23:51.159Z,35.92
2023-01-20T06:26:17.383Z,30.08
2023-01-20T06:28:43.615Z,33.25
2023-01-20T06:31:11.677Z,29.15
2023-01-20T06:33:37.957Z,31.65
2023-01-20T06:36:04.804Z,27.25
2023-01-20T06:38:32.252Z,30.50
2023-01-20T06:40:59.721Z,26.92
2023-01-20T06:43:27.629Z,28.77
2023-01-20T06:45:57.906Z,30.73
2023-01-20T06:48:24.130Z,32.05
2023-01-20T06:50:50.444Z,31.33
2023-01-20T06:53:16.679Z,30.85
2023-01-20T06:55:42.891Z,29.40
2023-01-20T06:58:09.218Z,23.35
2023-01-20T07:00:35.524Z,24.00
2023-01-20T07:03:01.736Z,29.65
2023-01-20T07:05:27.993Z,30.02
2023-01-20T07:07:54.269Z,31.02
2023-01-20T07:10:20.568Z,24.73
2023-01-20T07:12:46.833Z,28.48
2023-01-20T07:15:13.197Z,33.08
2023-01-20T07:17:39.604Z,38.20
2023-01-20T07:20:06.117Z,34.67
2023-01-20T07:22:32.309Z,35.67
2023-01-20T07:24:58.521Z,35.08
2023-01-20T07:27:24.778Z,36.00
2023-01-20T07:29:51.021Z,33.55
2023-01-20T07:32:17.308Z,35.53
2023-01-20T07:34:43.541Z,36.70
2023-01-20T07:37:09.794Z,32.50
2023-01-20T07:39:36.360Z,32.47
2023-01-20T07:42:02.620Z,37.38
2023-01-20T07:44:28.803Z,35.08
2023-01-20T07:46:55.107Z,40.83
2023-01-20T07:49:21.431Z,26.92
2023-01-20T07:51:47.656Z,28.33
2023-01-20T07:54:13.920Z,31.08
2023-01-20T07:56:40.292Z,39.45
2023-01-20T07:59:06.489Z,32.25
2023-01-20T08:01:33.092Z,33.35
2023-01-20T08:04:02.647Z,36.83
2023-01-20T08:06:29.126Z,37.15
2023-01-20T08:08:58.460Z,34.33
2023-01-20T08:11:25.002Z,35.15
2023-01-20T08:13:51.334Z,38.20
2023-01-20T08:16:18.349Z,36.88
2023-01-20T08:18:44.665Z,34.47
2023-01-20T08:21:21.507Z,34.22
2023-01-20T08:23:48.066Z,44.10
2023-01-20T08:26:14.636Z,39.88
2023-01-20T08:28:40.939Z,35.25
2023-01-20T08:31:17.863Z,42.15
2023-01-20T08:33:44.352Z,37.03
2023-01-20T08:36:15.610Z,40.28
2023-01-20T08:38:42.054Z,41.97
2023-01-20T08:41:12.962Z,35.58
2023-01-20T08:43:39.343Z,29.88
2023-01-20T08:46:07.497Z,32.38
2023-01-20T08:48:34.182Z,31.48
2023-01-20T08:51:03.232Z,31.73
2023-01-20T08:53:29.448Z,32.05
2023-01-20T08:55:59.901Z,36.10
2023-01-20T08:58:27.369Z,38.30
2023-01-20T09:00:54.147Z,31.27
2023-01-20T09:03:20.428Z,34.03
2023-01-20T09:05:46.772Z,30.88
2023-01-20T09:08:13.413Z,32.83
2023-01-20T09:10:39.779Z,33.13
2023-01-20T09:13:06.101Z,31.90
2023-01-20T09:15:32.751Z,35.60
2023-01-20T09:17:59.078Z,40.80
2023-01-20T09:20:26.944Z,35.95
2023-01-20T09:22:53.185Z,36.45
2023-01-20T09:25:19.467Z,30.17
2023-01-20T09:27:45.883Z,35.42
2023-01-20T09:30:12.227Z,32.10
2023-01-20T09:32:38.764Z,43.45
2023-01-20T09:35:05.233Z,37.25
2023-01-20T09:37:49.868Z,34.25
2023-01-20T09:40:37.204Z,36.30
2023-01-20T09:43:40.908Z,35.65
2023-01-20T09:46:12.918Z,36.88
2023-01-20T09:49:05.052Z,40.05
2023-01-20T09:51:54.342Z,31.73
2023-01-20T09:54:23.950Z,35.22
2023-01-20T09:56:51.701Z,36.05
2023-01-20T09:59:24.771Z,37.53
2023-01-20T10:01:55.874Z,39.17
2023-01-20T10:04:32.909Z,37.63
2023-01-20T10:07:08.100Z,40.75
2023-01-20T10:09:44.171Z,35.75
2023-01-20T10:12:19.917Z,33.40
2023-01-20T10:14:54.554Z,32.60
2023-01-20T10:17:36.925Z,33.70
2023-01-20T10:20:35.849Z,29.20
2023-01-20T10:23:05.140Z,31.67
2023-01-20T10:25:39.312Z,32.03
2023-01-20T10:28:09.204Z,31.23
2023-01-20T10:30:36.489Z,32.58
2023-01-20T10:33:07.521Z,29.23
2023-01-20T10:38:03.144Z,26.88
2023-01-20T10:40:44.611Z,23.85
2023-01-20T10:43:12.316Z,28.08
2023-01-20T10:45:41.850Z,30.48
2023-01-20T10:48:19.680Z,27.70
2023-01-20T10:50:46.791Z,29.05
2023-01-20T10:53:20.621Z,30.63
2023-01-20T10:56:04.174Z,29.23
2023-01-20T10:58:32.199Z,28.08
2023-01-20T11:01:00.965Z,32.03
2023-01-20T11:03:28.127Z,28.15
2023-01-20T11:05:54.372Z,23.98
2023-01-20T11:08:22.205Z,26.20
2023-01-20T11:10:50.911Z,27.77
2023-01-20T11:13:17.209Z,29.83
2023-01-20T11:15:45.266Z,29.25
2023-01-20T11:18:14.585Z,27.42
2023-01-20T11:20:47.049Z,26.80
2023-01-20T11:23:19.365Z,25.27
2023-01-20T11:25:53.801Z,22.77
2023-01-20T11:28:20.043Z,27.88
2023-01-20T11:30:50.293Z,24.45
2023-01-20T11:33:24.272Z,26.05
2023-01-20T11:36:01.182Z,23.38
2023-01-20T11:38:29.167Z,25.00
2023-01-20T11:40:57.495Z,25.60
2023-01-20T11:43:27.987Z,20.02
2023-01-20T11:46:08.948Z,21.90
2023-01-20T11:48:35.212Z,22.45
2023-01-20T11:51:02.497Z,19.15
2023-01-20T11:53:31.634Z,20.17
2023-01-20T11:56:03.008Z,21.90
2023-01-20T11:58:32.333Z,19.88
2023-01-20T12:01:03.627Z,24.10
2023-01-20T12:03:43.559Z,24.92
2023-01-20T12:06:21.189Z,27.60
2023-01-20T12:08:52.446Z,21.75
2023-01-20T12:11:22.150Z,18.67
2023-01-20T12:14:14.765Z,22.52
2023-01-20T12:16:41.566Z,18.73
2023-01-20T12:19:14.138Z,21.58
2023-01-20T12:21:45.843Z,17.75
2023-01-20T12:24:16.094Z,16.92
2023-01-20T12:26:42.687Z,19.77
2023-01-20T12:29:19.427Z,18.05
2023-01-20T12:31:48.941Z,19.42
2023-01-20T12:34:17.126Z,18.00
2023-01-20T12:37:02.287Z,17.33
2023-01-20T12:39:32.864Z,15.60
2023-01-20T12:42:05.585Z,19.33
2023-01-20T12:44:31.772Z,18.67
2023-01-20T12:47:17.295Z,15.13
2023-01-20T12:49:53.307Z,19.75
2023-01-20T12:52:30.675Z,15.50
2023-01-20T12:54:56.895Z,14.23
2023-01-20T12:57:38.800Z,23.75
2023-01-20T13:00:23.676Z,15.57
2023-01-20T13:03:08.808Z,17.15
2023-01-20T13:05:38.114Z,15.35
2023-01-20T13:08:04.405Z,15.13
2023-01-20T13:10:51.296Z,14.98
2023-01-20T13:13:40.245Z,12.13
2023-01-20T13:16:20.977Z,12.80
2023-01-20T13:18:49.987Z,15.43
2023-01-20T13:21:18.897Z,12.68
2023-01-20T13:23:45.765Z,13.07
2023-01-20T13:26:12.573Z,11.73
2023-01-20T13:28:49.603Z,12.15
2023-01-20T13:31:45.323Z,14.15
2023-01-20T13:34:20.836Z,13.55
2023-01-20T13:37:02.699Z,14.68
2023-01-20T13:39:39.535Z,15.05
2023-01-20T13:42:24.596Z,12.38
2023-01-20T13:45:09.620Z,14.02
2023-01-20T13:47:54.590Z,13.55
2023-01-20T13:50:22.295Z,12.75
2023-01-20T13:52:56.968Z,10.10
2023-01-20T13:55:35.189Z,11.20
2023-01-20T13:58:01.394Z,10.07
2023-01-20T14:00:27.630Z,11.70
2023-01-20T14:02:54.018Z,12.38
2023-01-20T14:05:24.953Z,13.55
2023-01-20T14:07:51.428Z,12.82
2023-01-20T14:10:18.623Z,12.90
2023-01-20T14:12:44.904Z,7.68
2023-01-20T14:15:24.515Z,11.50
2023-01-20T14:17:54.973Z,11.77
2023-01-20T14:20:23.558Z,12.30
2023-01-20T14:22:50.023Z,11.88
2023-01-20T14:25:20.750Z,12.35
2023-01-20T14:27:47.033Z,12.30
2023-01-20T14:30:16.982Z,10.38
2023-01-20T14:32:43.288Z,10.57
2023-01-20T14:35:17.250Z,11.63
2023-01-20T14:37:43.988Z,13.82
2023-01-20T14:40:10.194Z,10.57
2023-01-20T14:42:38.861Z,7.70
2023-01-20T14:45:21.791Z,11.15
2023-01-20T14:47:48.394Z,11.98
2023-01-20T14:50:15.709Z,10.82
2023-01-20T14:52:42.699Z,12.95
2023-01-20T14:55:26.685Z,9.43
2023-01-20T14:57:52.933Z,10.95
2023-01-20T15:00:20.812Z,12.10
2023-01-20T15:03:09.252Z,12.82
2023-01-20T15:05:37.293Z,11.77
2023-01-20T15:08:26.107Z,9.30
2023-01-20T15:11:12.179Z,7.35
2023-01-20T15:13:39.075Z,11.00
2023-01-20T15:16:16.898Z,10.27
2023-01-20T15:18:43.156Z,10.00
2023-01-20T15:21:22.297Z,7.68
2023-01-20T15:23:52.402Z,10.23
2023-01-20T15:26:28.905Z,10.67
2023-01-20T15:28:55.833Z,10.43
2023-01-20T15:31:22.326Z,10.50
2023-01-20T15:33:48.695Z,10.27
2023-01-20T15:36:27.599Z,13.18
2023-01-20T15:38:53.878Z,10.25
2023-01-20T15:41:20.131Z,11.75
2023-01-20T15:43:46.436Z,12.00
2023-01-20T15:46:13.971Z,14.77
2023-01-20T15:48:40.527Z,12.35
2023-01-20T15:51:07.105Z,13.18
2023-01-20T15:53:33.833Z,18.73
2023-01-20T15:56:00.343Z,16.58
2023-01-20T15:58:28.125Z,20.30
2023-01-20T16:00:57.706Z,17.35
2023-01-20T16:03:24.345Z,15.77
2023-01-20T16:05:51.593Z,19.45
2023-01-20T16:08:18.896Z,18.35
2023-01-20T16:10:45.217Z,22.02
2023-01-20T16:13:11.506Z,19.13
2023-01-20T16:15:38.352Z,18.00
2023-01-20T16:18:04.623Z,22.13
2023-01-20T16:20:31.093Z,17.40
2023-01-20T16:22:57.408Z,20.50
2023-01-20T16:25:24.587Z,22.55
2023-01-20T16:27:50.930Z,16.48
2023-01-20T16:30:19.079Z,21.58
2023-01-20T16:32:46.473Z,21.45
2023-01-20T16:35:13.633Z,18.67
2023-01-20T16:37:39.887Z,24.65
2023-01-20T16:40:06.425Z,24.83
2023-01-20T16:42:33.013Z,24.27
2023-01-20T16:44:59.251Z,21.85
2023-01-20T16:47:25.455Z,13.45
2023-01-20T16:49:51.794Z,21.08
2023-01-20T16:52:17.993Z,22.30
2023-01-20T16:54:44.253Z,24.33
2023-01-20T16:57:10.493Z,24.75
2023-01-20T16:59:36.702Z,20.50
2023-01-20T17:02:02.974Z,24.20
2023-01-20T17:04:30.345Z,23.42
2023-01-20T17:06:56.557Z,25.55
2023-01-20T17:09:22.827Z,22.83
2023-01-20T17:11:49.053Z,24.60
2023-01-20T17:14:15.605Z,32.05
2023-01-20T17:16:42.048Z,28.98
2023-01-20T17:19:10.055Z,26.20
2023-01-20T17:21:38.219Z,29.02
2023-01-20T17:24:04.999Z,19.80
2023-01-20T17:26:31.555Z,30.75
2023-01-20T17:29:04.806Z,29.02
2023-01-20T17:31:34.139Z,34.58
2023-01-20T17:34:00.338Z,32.97
2023-01-20T17:36:26.528Z,33.75
2023-01-20T17:38:52.811Z,30.92
2023-01-20T17:41:19.057Z,31.30
2023-01-20T17:43:48.333Z,32.55
2023-01-20T17:46:34.807Z,33.30
2023-01-20T17:49:08.059Z,26.48
2023-01-20T17:51:34.760Z,30.52
2023-01-20T17:54:03.845Z,29.42
2023-01-20T17:56:30.449Z,27.45
2023-01-20T17:58:56.668Z,31.33
2023-01-20T18:01:27.153Z,29.45
2023-01-20T18:03:54.415Z,28.60
2023-01-20T18:06:22.076Z,33.75
2023-01-20T18:08:52.719Z,28.15
2023-01-20T18:11:20.210Z,22.23
2023-01-20T18:13:46.777Z,31.25
2023-01-20T18:16:14.107Z,34.70
2023-01-20T18:18:41.047Z,32.80
2023-01-20T18:21:11.619Z,33.00
2023-01-20T18:23:39.256Z,27.20
2023-01-20T18:26:06.786Z,34.13
2023-01-20T18:28:33.620Z,31.05
2023-01-20T18:31:00.992Z,30.38
2023-01-20T18:33:27.270Z,37.80
2023-01-20T18:35:54.718Z,34.35
2023-01-20T18:38:20.951Z,34.72
2023-01-20T18:40:47.140Z,40.08
2023-01-20T18:43:13.320Z,32.33
2023-01-20T18:45:39.539Z,31.75
2023-01-20T18:48:05.915Z,34.42
2023-01-20T18:50:32.180Z,30.15
2023-01-20T18:52:59.552Z,33.92
2023-01-20T18:55:25.777Z,29.52
2023-01-20T18:57:52.028Z,36.22
2023-01-20T19:00:18.491Z,35.78
2023-01-20T19:02:45.226Z,33.70
2023-01-20T19:05:13.051Z,39.92
2023-01-20T19:07:39.324Z,35.55
2023-01-20T19:10:05.688Z,38.60
2023-01-20T19:12:31.882Z,36.17
2023-01-20T19:14:58.183Z,37.13
2023-01-20T19:17:26.556Z,29.27
2023-01-20T19:19:52.766Z,38.13
2023-01-20T19:22:18.985Z,35.92
2023-01-20T19:24:45.182Z,37.47
2023-01-20T19:27:11.371Z,34.70
2023-01-20T19:29:40.821Z,31.70
2023-01-20T19:32:07.755Z,34.33
2023-01-20T19:34:34.740Z,37.35
2023-01-20T19:37:01.302Z,33.00
2023-01-20T19:39:27.618Z,33.78
2023-01-20T19:41:53.909Z,36.45
2023-01-20T19:44:20.181Z,33.90
2023-01-20T19:46:46.360Z,36.58
2023-01-20T19:49:12.860Z,33.75
2023-01-20T19:51:39.142Z,38.03
2023-01-20T19:54:05.960Z,34.88
2023-01-20T19:56:33.388Z,34.00
2023-01-20T19:59:03.215Z,32.00
2023-01-20T20:01:31.690Z,34.00
2023-01-20T20:03:58.491Z,33.97
2023-01-20T20:06:24.807Z,31.52
2023-01-20T20:08:51.483Z,32.65
2023-01-20T20:11:18.056Z,33.35
2023-01-20T20:13:44.448Z,32.92
2023-01-20T20:16:10.927Z,36.97
2023-01-20T20:18:37.215Z,35.88
2023-01-20T20:21:04.707Z,34.15
2023-01-20T20:23:31.169Z,31.38
2023-01-20T20:25:57.454Z,31.15
2023-01-20T20:28:24.127Z,32.40
2023-01-20T20:30:50.638Z,33.50
2023-01-20T20:33:18.404Z,31.98
2023-01-20T20:35:44.980Z,37.25
2023-01-20T20:38:11.180Z,31.50
2023-01-20T20:40:37.519Z,32.42
2023-01-20T20:43:04.334Z,30.08
2023-01-20T20:45:30.581Z,33.00
2023-01-20T20:47:57.215Z,29.33
2023-01-20T20:50:24.003Z,27.88
2023-01-20T20:52:51.206Z,32.47
2023-01-20T20:55:17.828Z,29.17
2023-01-20T20:57:44.062Z,29.25
2023-01-20T21:00:10.750Z,33.55
2023-01-20T21:02:39.482Z,33.72
2023-01-20T21:05:06.573Z,36.00
2023-01-20T21:07:32.824Z,29.85
2023-01-20T21:09:59.035Z,32.17
2023-01-20T21:12:25.328Z,29.58
2023-01-20T21:14:51.577Z,31.15
2023-01-20T21:17:17.811Z,38.65
2023-01-20T21:19:44.112Z,32.58
2023-01-20T21:22:10.382Z,33.95
2023-01-20T21:24:36.599Z,31.73
2023-01-20T21:27:02.843Z,34.70
2023-01-20T21:29:29.205Z,34.92
2023-01-20T21:31:55.769Z,32.20
2023-01-20T21:34:22.057Z,35.80
2023-01-20T21:36:48.260Z,36.15
2023-01-20T21:39:19.945Z,31.17
2023-01-20T21:41:46.590Z,37.08
2023-01-20T21:44:28.681Z,32.28
2023-01-20T21:46:59.290Z,32.97
2023-01-20T21:49:44.527Z,31.35
2023-01-20T21:52:31.575Z,37.72
2023-01-20T21:54:57.824Z,37.53
2023-01-20T21:57:25.004Z,34.42
2023-01-20T21:59:51.792Z,34.03
2023-01-20T22:02:18.148Z,43.72
2023-01-20T22:04:46.012Z,37.00
2023-01-20T22:07:12.579Z,42.90
2023-01-20T22:09:39.100Z,46.25
2023-01-20T22:12:05.530Z,38.05
2023-01-20T22:14:34.697Z,38.50
2023-01-20T22:17:01.339Z,45.00
2023-01-20T22:19:27.546Z,39.53
2023-01-20T22:21:53.782Z,40.47
2023-01-20T22:24:20.071Z,40.75
2023-01-20T22:26:48.003Z,37.15
2023-01-20T22:29:14.499Z,41.60
2023-01-20T22:31:40.814Z,36.25
2023-01-20T22:34:07.480Z,39.97
2023-01-20T22:36:34.036Z,39.58
2023-01-20T22:39:00.250Z,33.15
2023-01-20T22:41:26.634Z,40.58
2023-01-20T22:43:53.320Z,39.72
2023-01-20T22:46:22.992Z,32.97
2023-01-20T22:48:49.250Z,36.33
2023-01-20T22:51:16.985Z,34.28
2023-01-20T22:53:43.389Z,36.10
2023-01-20T22:56:11.675Z,32.80
2023-01-20T22:58:37.967Z,36.90
2023-01-20T23:01:04.338Z,35.28
2023-01-20T23:03:31.068Z,35.13
2023-01-20T23:05:58.773Z,40.22
2023-01-20T23:08:29.625Z,41.03
2023-01-20T23:11:06.607Z,32.92
2023-01-20T23:13:33.031Z,35.00
2023-01-20T23:15:59.246Z,39.70
2023-01-20T23:18:25.586Z,38.03
2023-01-20T23:20:52.806Z,36.65
2023-01-20T23:23:19.368Z,36.67
2023-01-20T23:25:45.797Z,38.67
2023-01-20T23:28:12.376Z,35.03
2023-01-20T23:30:39.122Z,39.17
2023-01-20T23:33:05.883Z,37.67
2023-01-20T23:35:33.689Z,39.17
2023-01-20T23:37:59.913Z,39.83
2023-01-20T23:40:26.155Z,35.30
2023-01-20T23:42:52.495Z,34.45
2023-01-20T23:45:18.749Z,42.65
2023-01-20T23:47:45.019Z,36.97
2023-01-20T23:50:11.393Z,39.95
2023-01-20T23:52:37.591Z,35.20
2023-01-20T23:55:04.529Z,37.25
2023-01-20T23:57:30.760Z,41.80
2023-01-20T23:59:56.992Z,39.47
